createdAt,value
2022-09-14T00:02:08.266Z,100861.50
2022-09-14T00:07:15.119Z,100860.25
2022-09-14T00:12:22.138Z,100850.06
2022-09-14T00:17:30.242Z,100838.63
2022-09-14T00:22:32.027Z,100836.59
2022-09-14T00:27:41.480Z,100832.91
2022-09-14T00:32:46.376Z,100833.13
2022-09-14T00:37:53.445Z,100833.16
2022-09-14T00:42:55.335Z,100829.28
2022-09-14T00:48:03.799Z,100827.88
2022-09-14T00:53:08.242Z,100832.66
2022-09-14T00:58:14.994Z,100838.28
2022-09-14T01:03:21.313Z,100825.88
2022-09-14T01:08:47.190Z,100821.09
2022-09-14T01:14:08.105Z,100821.34
2022-09-14T01:19:21.749Z,100815.53
2022-09-14T01:24:33.941Z,100810.78
2022-09-14T01:29:45.635Z,100820.31
2022-09-14T01:35:12.106Z,100813.91
2022-09-14T01:40:21.242Z,100815.34
2022-09-14T01:45:26.676Z,100811.19
2022-09-14T01:50:41.767Z,100801.47
2022-09-14T01:55:51.263Z,100799.63
2022-09-14T02:00:54.336Z,100792.59
2022-09-14T02:06:19.357Z,100784.06
2022-09-14T02:11:21.623Z,100784.69
2022-09-14T02:16:26.556Z,100778.91
2022-09-14T02:21:35.127Z,100780.56
2022-09-14T02:26:37.881Z,100778.88
2022-09-14T02:31:44.618Z,100784.03
2022-09-14T02:37:23.043Z,100777.22
2022-09-14T02:42:30.670Z,100776.19
2022-09-14T02:47:46.092Z,100782.41
2022-09-14T02:53:18.967Z,100771.84
2022-09-14T02:58:21.765Z,100771.66
2022-09-14T03:03:23.550Z,100775.59
2022-09-14T03:08:27.007Z,100761.50
2022-09-14T03:13:28.943Z,100756.78
2022-09-14T03:18:36.198Z,100754.28
2022-09-14T03:23:48.595Z,100737.31
2022-09-14T03:28:56.989Z,100732.56
2022-09-14T03:34:02.933Z,100723.06
2022-09-14T03:39:07.195Z,100711.28
2022-09-14T03:44:10.275Z,100720.81
2022-09-14T03:49:12.019Z,100716.44
2022-09-14T03:54:16.349Z,100713.75
2022-09-14T03:59:18.061Z,100721.63
2022-09-14T04:04:22.203Z,100724.25
2022-09-14T04:09:26.204Z,100734.03
2022-09-14T04:14:30.336Z,100730.94
2022-09-14T04:19:37.572Z,100726.59
2022-09-14T04:24:42.788Z,100719.16
2022-09-14T04:29:45.345Z,100721.84
2022-09-14T04:34:49.027Z,100717.09
2022-09-14T04:39:52.243Z,100716.91
2022-09-14T04:45:05.619Z,100709.03
2022-09-14T04:50:12.696Z,100705.91
2022-09-14T04:55:16.619Z,100705.72
2022-09-14T05:00:18.333Z,100707.38
2022-09-14T05:05:20.139Z,100706.53
2022-09-14T05:10:25.598Z,100710.28
2022-09-14T05:15:29.835Z,100710.47
2022-09-14T05:20:37.238Z,100705.31
2022-09-14T05:25:40.258Z,100710.91
2022-09-14T05:30:48.219Z,100705.91
2022-09-14T05:35:50.814Z,100710.06
2022-09-14T05:40:55.195Z,100704.28
2022-09-14T05:46:00.807Z,100712.53
2022-09-14T05:51:11.641Z,100709.03
2022-09-14T05:56:23.169Z,100708.84
2022-09-14T06:01:33.601Z,100701.38
2022-09-14T06:06:36.761Z,100708.81
2022-09-14T06:11:39.861Z,100705.03
2022-09-14T06:16:46.622Z,100698.41
2022-09-14T06:21:48.387Z,100699.41
2022-09-14T06:26:50.144Z,100692.16
2022-09-14T06:31:54.134Z,100688.88
2022-09-14T06:36:56.495Z,100685.72
2022-09-14T06:42:03.159Z,100688.19
2022-09-14T06:47:07.259Z,100688.34
2022-09-14T06:52:13.731Z,100687.69
2022-09-14T06:57:15.802Z,100694.28
2022-09-14T07:02:18.481Z,100692.41
2022-09-14T07:07:23.473Z,100689.53
2022-09-14T07:12:29.661Z,100707.34
2022-09-14T07:17:31.929Z,100710.81
2022-09-14T07:22:34.784Z,100704.59
2022-09-14T07:27:42.130Z,100715.56
2022-09-14T07:32:49.667Z,100696.25
2022-09-14T07:37:58.070Z,100695.59
2022-09-14T07:43:04.847Z,100704.09
2022-09-14T07:48:07.731Z,100706.97
2022-09-14T07:53:10.001Z,100697.97
2022-09-14T07:58:11.770Z,100704.13
2022-09-14T08:03:14.551Z,100700.88
2022-09-14T08:08:16.283Z,100711.94
2022-09-14T08:13:20.582Z,100700.47
2022-09-14T08:18:30.501Z,100699.91
2022-09-14T08:23:32.989Z,100704.03
2022-09-14T08:28:36.430Z,100694.56
2022-09-14T08:33:42.290Z,100683.41
2022-09-14T08:38:44.222Z,100689.41
2022-09-14T08:43:46.308Z,100682.00
2022-09-14T08:48:52.434Z,100671.06
2022-09-14T08:53:59.619Z,100672.59
2022-09-14T08:59:09.752Z,100674.44
2022-09-14T09:04:25.586Z,100669.63
2022-09-14T09:09:37.337Z,100672.47
2022-09-14T09:14:44.061Z,100668.56
2022-09-14T09:19:57.186Z,100665.13
2022-09-14T09:25:03.149Z,100677.31
2022-09-14T09:30:07.516Z,100679.78
2022-09-14T09:35:16.538Z,100677.38
2022-09-14T09:40:36.818Z,100673.50
2022-09-14T09:45:59.996Z,100667.06
2022-09-14T09:51:15.340Z,100670.25
2022-09-14T09:56:27.282Z,100668.75
2022-09-14T10:01:34.544Z,100656.41
2022-09-14T10:06:47.192Z,100659.47
2022-09-14T10:12:00.874Z,100658.34
2022-09-14T10:17:19.132Z,100650.88
2022-09-14T10:22:27.915Z,100656.78
2022-09-14T10:27:40.185Z,100659.13
2022-09-14T10:32:47.698Z,100659.75
2022-09-14T10:38:00.960Z,100660.44
2022-09-14T10:43:13.003Z,100658.41
2022-09-14T10:48:43.648Z,100657.94
2022-09-14T10:54:41.497Z,100655.00
2022-09-14T11:00:05.402Z,100646.84
2022-09-14T11:05:25.979Z,100655.44
2022-09-14T11:10:38.729Z,100656.03
2022-09-14T11:16:06.656Z,100645.28
2022-09-14T11:21:45.603Z,100639.16
2022-09-14T11:27:37.972Z,100632.84
2022-09-14T11:33:02.053Z,100632.28
2022-09-14T11:38:18.087Z,100647.59
2022-09-14T11:43:53.083Z,100640.44
2022-09-14T11:48:57.752Z,100635.16
2022-09-14T11:54:04.561Z,100632.34
2022-09-14T11:59:44.345Z,100631.22
2022-09-14T12:05:05.209Z,100630.22
2022-09-14T12:10:14.490Z,100632.81
2022-09-14T12:15:26.184Z,100632.44
2022-09-14T12:20:37.857Z,100631.38
2022-09-14T12:26:06.929Z,100626.19
2022-09-14T12:31:13.029Z,100636.09
2022-09-14T12:36:26.689Z,100612.59
2022-09-14T12:41:29.251Z,100624.28
2022-09-14T12:46:35.696Z,100624.13
2022-09-14T12:51:44.888Z,100621.69
2022-09-14T12:57:13.596Z,100617.44
2022-09-14T13:02:47.606Z,100617.22
2022-09-14T13:07:51.162Z,100623.00
2022-09-14T13:12:55.668Z,100615.72
2022-09-14T13:18:00.196Z,100611.06
2022-09-14T13:23:02.409Z,100605.91
2022-09-14T13:28:09.218Z,100597.75
2022-09-14T13:33:17.219Z,100597.72
2022-09-14T13:38:21.884Z,100598.22
2022-09-14T13:43:23.850Z,100591.25
2022-09-14T13:48:25.762Z,100593.38
2022-09-14T13:53:54.009Z,100575.78
2022-09-14T13:59:14.612Z,100567.41
2022-09-14T14:04:34.092Z,100564.13
2022-09-14T14:09:45.951Z,100557.38
2022-09-14T14:15:09.086Z,100556.69
2022-09-14T14:20:27.074Z,100555.88
2022-09-14T14:25:45.517Z,100550.47
2022-09-14T14:30:54.684Z,100548.16
2022-09-14T14:36:09.306Z,100544.72
2022-09-14T14:41:39.788Z,100535.59
2022-09-14T14:46:42.454Z,100538.22
2022-09-14T14:51:48.669Z,100531.69
2022-09-14T14:56:59.151Z,100531.09
2022-09-14T15:02:03.055Z,100519.06
2022-09-14T15:07:08.964Z,100518.03
2022-09-14T15:12:16.396Z,100511.88
2022-09-14T15:17:18.976Z,100508.22
2022-09-14T15:22:24.226Z,100498.44
2022-09-14T15:27:28.285Z,100498.50
2022-09-14T15:32:33.238Z,100491.44
2022-09-14T15:37:34.992Z,100503.06
2022-09-14T15:42:36.863Z,100491.81
2022-09-14T15:47:44.063Z,100490.16
2022-09-14T15:52:46.051Z,100494.69
2022-09-14T15:57:54.036Z,100501.38
2022-09-14T16:02:55.828Z,100500.69
2022-09-14T16:08:02.788Z,100497.22
2022-09-14T16:13:05.801Z,100503.41
2022-09-14T16:18:08.672Z,100497.63
2022-09-14T16:23:10.573Z,100491.22
2022-09-14T16:28:12.291Z,100483.19
2022-09-14T16:33:14.464Z,100483.53
2022-09-14T16:38:16.353Z,100488.13
2022-09-14T16:43:18.060Z,100478.19
2022-09-14T16:48:22.516Z,100492.38
2022-09-14T16:53:25.130Z,100489.22
2022-09-14T16:58:26.955Z,100486.28
2022-09-14T17:03:31.697Z,100476.28
2022-09-14T17:08:38.654Z,100486.59
2022-09-14T17:13:46.558Z,100498.56
2022-09-14T17:18:52.362Z,100497.50
2022-09-14T17:23:59.679Z,100497.81
2022-09-14T17:29:06.715Z,100497.06
2022-09-14T17:34:15.266Z,100494.31
2022-09-14T17:39:17.241Z,100502.44
2022-09-14T17:44:20.005Z,100498.81
2022-09-14T17:49:23.103Z,100496.91
2022-09-14T17:54:25.011Z,100502.28
2022-09-14T17:59:27.437Z,100508.84
2022-09-14T18:04:34.674Z,100491.59
2022-09-14T18:09:36.462Z,100491.97
2022-09-14T18:14:38.250Z,100502.13
2022-09-14T18:19:41.451Z,100500.34
2022-09-14T18:24:49.405Z,100489.44
2022-09-14T18:29:55.457Z,100484.50
2022-09-14T18:35:01.226Z,100487.84
2022-09-14T18:40:03.229Z,100491.22
2022-09-14T18:45:10.574Z,100488.72
2022-09-14T18:50:12.617Z,100489.53
2022-09-14T18:55:19.572Z,100496.06
2022-09-14T19:00:24.924Z,100498.41
2022-09-14T19:05:30.428Z,100496.75
2022-09-14T19:10:32.819Z,100497.22
2022-09-14T19:15:34.964Z,100492.03
2022-09-14T19:21:05.471Z,100486.50
2022-09-14T19:26:08.655Z,100484.84
2022-09-14T19:31:20.305Z,100483.34
2022-09-14T19:36:27.352Z,100484.16
2022-09-14T19:41:32.979Z,100490.34
2022-09-14T19:46:39.837Z,100487.13
2022-09-14T19:51:42.915Z,100487.22
2022-09-14T19:56:46.213Z,100490.13
2022-09-14T20:01:48.128Z,100480.03
2022-09-14T20:06:51.704Z,100483.66
2022-09-14T20:11:55.804Z,100482.94
2022-09-14T20:17:02.451Z,100480.84
2022-09-14T20:22:07.539Z,100478.06
2022-09-14T20:27:09.353Z,100484.81
2022-09-14T20:32:15.435Z,100483.88
2022-09-14T20:37:23.832Z,100477.50
2022-09-14T20:42:25.678Z,100477.94
2022-09-14T20:47:33.207Z,100475.09
2022-09-14T20:52:38.528Z,100473.63
2022-09-14T20:57:40.729Z,100467.16
2022-09-14T21:02:42.537Z,100466.34
2022-09-14T21:07:56.017Z,100463.88
2022-09-14T21:12:59.548Z,100464.53
2022-09-14T21:18:18.669Z,100461.22
2022-09-14T21:23:23.209Z,100454.22
2022-09-14T21:28:29.701Z,100459.44
2022-09-14T21:33:34.783Z,100460.47
2022-09-14T21:38:38.673Z,100457.25
2022-09-14T21:43:41.763Z,100461.88
2022-09-14T21:48:45.900Z,100459.03
2022-09-14T21:53:51.714Z,100450.53
2022-09-14T21:58:59.970Z,100451.16
2022-09-14T22:04:10.549Z,100444.69
2022-09-14T22:09:16.446Z,100451.50
2022-09-14T22:14:22.298Z,100447.41
2022-09-14T22:19:28.858Z,100437.84
2022-09-14T22:24:37.481Z,100445.72
2022-09-14T22:29:40.909Z,100451.31
2022-09-14T22:34:49.486Z,100451.91
2022-09-14T22:39:53.836Z,100462.63
2022-09-14T22:44:55.560Z,100456.38
2022-09-14T22:49:57.226Z,100458.38
2022-09-14T22:55:02.095Z,100455.03
2022-09-14T23:00:10.023Z,100461.41
2022-09-14T23:05:14.473Z,100457.22
2022-09-14T23:10:18.670Z,100463.22
2022-09-14T23:15:20.670Z,100462.16
2022-09-14T23:20:22.579Z,100462.97
2022-09-14T23:25:26.464Z,100475.19
2022-09-14T23:30:33.485Z,100469.22
2022-09-14T23:35:40.204Z,100485.16
2022-09-14T23:40:42.790Z,100468.97
2022-09-14T23:45:47.572Z,100473.63
2022-09-14T23:50:59.204Z,100462.69
2022-09-14T23:56:03.727Z,100459.00
